createdAt,value
2018-12-30T00:00:28.271Z,987.53
2018-12-30T00:01:28.260Z,987.54
2018-12-30T00:02:28.240Z,987.51
2018-12-30T00:03:28.222Z,987.44
2018-12-30T00:04:28.207Z,987.40
2018-12-30T00:05:28.191Z,987.41
2018-12-30T00:06:28.177Z,987.40
2018-12-30T00:07:28.159Z,987.45
2018-12-30T00:08:28.143Z,987.40
2018-12-30T00:09:28.129Z,987.40
2018-12-30T00:10:28.140Z,987.37
2018-12-30T00:11:28.095Z,987.36
2018-12-30T00:12:28.079Z,987.38
2018-12-30T00:13:28.066Z,987.37
2018-12-30T00:14:28.047Z,987.39
2018-12-30T00:15:28.029Z,987.41
2018-12-30T00:16:28.015Z,987.42
2018-12-30T00:17:28.000Z,987.43
2018-12-30T00:18:27.982Z,987.48
2018-12-30T00:19:27.965Z,987.49
2018-12-30T00:20:27.952Z,987.54
2018-12-30T00:21:27.935Z,987.48
2018-12-30T00:22:27.917Z,987.50
2018-12-30T00:23:27.901Z,987.51
2018-12-30T00:24:27.886Z,987.49
2018-12-30T00:25:27.868Z,987.54
2018-12-30T00:26:27.852Z,987.51
2018-12-30T00:27:27.835Z,987.56
2018-12-30T00:28:27.821Z,987.58
2018-12-30T00:29:27.804Z,987.55
2018-12-30T00:30:27.787Z,987.56
2018-12-30T00:31:27.774Z,987.56
2018-12-30T00:32:27.755Z,987.53
2018-12-30T00:33:27.743Z,987.57
2018-12-30T00:34:27.727Z,987.60
2018-12-30T00:35:27.707Z,987.61
2018-12-30T00:36:27.692Z,987.68
2018-12-30T00:37:27.676Z,987.66
2018-12-30T00:38:27.660Z,987.64
2018-12-30T00:39:27.642Z,987.65
2018-12-30T00:40:27.627Z,987.70
2018-12-30T00:41:27.613Z,987.76
2018-12-30T00:42:27.594Z,987.71
2018-12-30T00:43:27.579Z,987.70
2018-12-30T00:44:27.563Z,987.69
2018-12-30T00:45:27.546Z,987.72
2018-12-30T00:46:27.529Z,987.70
2018-12-30T00:47:27.514Z,987.63
2018-12-30T00:48:27.499Z,987.64
2018-12-30T00:49:27.485Z,987.62
2018-12-30T00:50:27.467Z,987.63
2018-12-30T00:51:27.449Z,987.61
2018-12-30T00:52:27.435Z,987.62
2018-12-30T00:53:27.419Z,987.63
2018-12-30T00:54:27.400Z,987.60
2018-12-30T00:55:27.386Z,987.59
2018-12-30T00:56:27.374Z,987.62
2018-12-30T00:57:27.352Z,987.63
2018-12-30T00:58:27.336Z,987.65
2018-12-30T00:59:27.321Z,987.67
2018-12-30T01:00:27.303Z,987.61
2018-12-30T01:01:27.288Z,987.60
2018-12-30T01:02:27.272Z,987.62
2018-12-30T01:03:27.256Z,987.68
2018-12-30T01:04:27.241Z,987.71
2018-12-30T01:05:27.223Z,987.74
2018-12-30T01:06:27.206Z,987.75
2018-12-30T01:07:27.190Z,987.80
2018-12-30T01:08:27.174Z,987.88
2018-12-30T01:09:27.160Z,987.89
2018-12-30T01:10:27.143Z,987.90
2018-12-30T01:11:27.127Z,987.96
2018-12-30T01:12:27.113Z,988.06
2018-12-30T01:13:27.095Z,988.04
2018-12-30T01:14:27.079Z,987.99
2018-12-30T01:15:27.061Z,988.04
2018-12-30T01:16:27.047Z,988.04
2018-12-30T01:17:27.030Z,988.03
2018-12-30T01:18:27.013Z,988.02
2018-12-30T01:19:26.997Z,988.01
2018-12-30T01:20:26.980Z,988.07
2018-12-30T01:21:26.965Z,988.06
2018-12-30T01:22:26.948Z,988.12
2018-12-30T01:23:26.935Z,988.14
2018-12-30T01:24:26.915Z,988.12
2018-12-30T01:25:26.900Z,988.20
2018-12-30T01:26:26.885Z,988.22
2018-12-30T01:27:26.868Z,988.28
2018-12-30T01:28:26.851Z,988.27
2018-12-30T01:29:26.837Z,988.29
2018-12-30T01:30:26.820Z,988.35
2018-12-30T01:31:26.802Z,988.30
2018-12-30T01:32:26.787Z,988.28
2018-12-30T01:33:26.771Z,988.24
2018-12-30T01:34:26.753Z,988.23
2018-12-30T01:35:26.740Z,988.21
2018-12-30T01:36:26.721Z,988.21
2018-12-30T01:37:26.707Z,988.16
2018-12-30T01:38:26.689Z,988.13
2018-12-30T01:39:26.673Z,988.13
2018-12-30T01:40:26.657Z,988.14
2018-12-30T01:41:26.641Z,988.17
2018-12-30T01:42:26.624Z,988.17
2018-12-30T01:43:26.609Z,988.18
2018-12-30T01:44:26.594Z,988.15
2018-12-30T01:45:26.578Z,988.12
2018-12-30T01:46:26.559Z,988.17
2018-12-30T01:47:26.545Z,988.15
2018-12-30T01:48:26.535Z,988.16
2018-12-30T01:49:26.514Z,988.17
2018-12-30T01:50:26.495Z,988.17
2018-12-30T01:51:33.047Z,988.17
2018-12-30T01:52:26.487Z,988.17
2018-12-30T01:53:26.450Z,988.13
2018-12-30T01:54:26.429Z,988.14
2018-12-30T01:55:26.413Z,988.19
2018-12-30T01:56:26.399Z,988.12
2018-12-30T01:57:26.383Z,988.15
2018-12-30T01:58:26.366Z,988.10
2018-12-30T01:59:26.350Z,988.10
2018-12-30T02:00:26.336Z,988.11
2018-12-30T02:01:26.323Z,988.08
2018-12-30T02:02:26.302Z,988.05
2018-12-30T02:03:26.289Z,988.02
2018-12-30T02:04:26.271Z,988.01
2018-12-30T02:05:26.255Z,988.00
2018-12-30T02:06:26.237Z,987.99
2018-12-30T02:07:26.223Z,988.00
2018-12-30T02:08:26.207Z,987.95
2018-12-30T02:09:26.191Z,988.00
2018-12-30T02:10:26.175Z,988.04
2018-12-30T02:11:26.159Z,988.05
2018-12-30T02:12:26.141Z,988.06
2018-12-30T02:13:26.131Z,988.04
2018-12-30T02:14:26.110Z,988.02
2018-12-30T02:15:26.093Z,987.96
2018-12-30T02:16:26.078Z,987.97
2018-12-30T02:17:26.063Z,987.98
2018-12-30T02:18:26.045Z,988.00
2018-12-30T02:19:26.028Z,988.06
2018-12-30T02:20:26.015Z,988.07
2018-12-30T02:21:25.998Z,988.09
2018-12-30T02:22:25.979Z,988.11
2018-12-30T02:23:25.963Z,988.12
2018-12-30T02:24:25.947Z,988.17
2018-12-30T02:25:25.936Z,988.21
2018-12-30T02:26:25.917Z,988.21
2018-12-30T02:27:25.898Z,988.23
2018-12-30T02:28:25.883Z,988.25
2018-12-30T02:29:25.867Z,988.22
2018-12-30T02:30:25.852Z,988.21
2018-12-30T02:31:25.837Z,988.23
2018-12-30T02:32:25.822Z,988.21
2018-12-30T02:33:25.806Z,988.21
2018-12-30T02:34:25.791Z,988.21
2018-12-30T02:35:25.773Z,988.21
2018-12-30T02:36:25.756Z,988.18
2018-12-30T02:37:25.738Z,988.11
2018-12-30T02:38:25.722Z,988.12
2018-12-30T02:39:25.708Z,988.03
2018-12-30T02:40:25.706Z,988.07
2018-12-30T02:41:25.676Z,988.11
2018-12-30T02:42:25.658Z,988.15
2018-12-30T02:43:25.644Z,988.11
2018-12-30T02:44:25.625Z,988.12
2018-12-30T02:45:25.610Z,988.15
2018-12-30T02:46:25.593Z,988.10
2018-12-30T02:47:25.579Z,988.09
2018-12-30T02:48:25.564Z,988.06
2018-12-30T02:49:25.550Z,988.03
2018-12-30T02:50:25.529Z,988.05
2018-12-30T02:51:25.514Z,987.97
2018-12-30T02:52:25.499Z,987.97
2018-12-30T02:53:25.488Z,988.02
2018-12-30T02:54:25.464Z,988.03
2018-12-30T02:55:25.448Z,988.02
2018-12-30T02:56:25.433Z,988.01
2018-12-30T02:57:25.420Z,988.02
2018-12-30T02:58:25.400Z,988.02
2018-12-30T02:59:25.564Z,988.02
2018-12-30T03:00:25.374Z,987.99
2018-12-30T03:01:25.353Z,987.96
2018-12-30T03:02:25.335Z,987.97
2018-12-30T03:03:25.327Z,988.01
2018-12-30T03:04:25.301Z,988.02
2018-12-30T03:05:25.369Z,988.01
2018-12-30T03:06:25.271Z,988.07
2018-12-30T03:07:25.255Z,988.10
2018-12-30T03:08:25.239Z,988.08
2018-12-30T03:09:25.233Z,988.01
2018-12-30T03:10:25.205Z,987.95
2018-12-30T03:11:25.189Z,987.97
2018-12-30T03:12:25.173Z,988.00
2018-12-30T03:13:25.157Z,988.00
2018-12-30T03:14:25.140Z,988.02
2018-12-30T03:15:25.127Z,988.04
2018-12-30T03:16:25.108Z,988.13
2018-12-30T03:17:25.092Z,988.16
2018-12-30T03:18:25.078Z,988.17
2018-12-30T03:19:25.060Z,988.18
2018-12-30T03:20:25.047Z,988.13
2018-12-30T03:21:25.029Z,988.16
2018-12-30T03:22:25.010Z,988.21
2018-12-30T03:23:24.994Z,988.27
2018-12-30T03:24:24.983Z,988.23
2018-12-30T03:25:24.964Z,988.22
2018-12-30T03:26:24.946Z,988.24
2018-12-30T03:27:24.930Z,988.25
2018-12-30T03:28:24.915Z,988.33
2018-12-30T03:29:24.900Z,988.31
2018-12-30T03:30:24.885Z,988.33
2018-12-30T03:31:24.888Z,988.36
2018-12-30T03:32:24.854Z,988.36
2018-12-30T03:33:24.835Z,988.41
2018-12-30T03:34:24.817Z,988.36
2018-12-30T03:35:24.801Z,988.36
2018-12-30T03:36:24.787Z,988.40
2018-12-30T03:37:24.770Z,988.45
2018-12-30T03:38:24.755Z,988.44
2018-12-30T03:39:24.738Z,988.44
2018-12-30T03:40:24.722Z,988.40
2018-12-30T03:41:24.707Z,988.39
2018-12-30T03:42:24.691Z,988.40
2018-12-30T03:43:24.674Z,988.40
2018-12-30T03:44:24.656Z,988.41
2018-12-30T03:45:24.642Z,988.35
2018-12-30T03:46:24.626Z,988.35
2018-12-30T03:47:24.610Z,988.37
2018-12-30T03:48:24.595Z,988.36
2018-12-30T03:49:24.579Z,988.35
2018-12-30T03:50:24.560Z,988.32
2018-12-30T03:51:24.544Z,988.33
2018-12-30T03:52:24.534Z,988.31
2018-12-30T03:53:24.514Z,988.32
2018-12-30T03:54:24.498Z,988.35
2018-12-30T03:55:24.482Z,988.38
2018-12-30T03:56:24.465Z,988.41
2018-12-30T03:57:24.452Z,988.44
2018-12-30T03:58:24.436Z,988.46
2018-12-30T03:59:24.417Z,988.54
2018-12-30T04:00:24.401Z,988.57
2018-12-30T04:01:24.386Z,988.61
2018-12-30T04:02:24.368Z,988.61
2018-12-30T04:03:24.391Z,988.67
2018-12-30T04:04:24.345Z,988.70
2018-12-30T04:05:24.323Z,988.71
2018-12-30T04:06:24.306Z,988.69
2018-12-30T04:07:24.290Z,988.67
2018-12-30T04:08:24.272Z,988.70
2018-12-30T04:09:24.259Z,988.75
2018-12-30T04:10:24.244Z,988.68
2018-12-30T04:11:24.224Z,988.62
2018-12-30T04:12:24.215Z,988.61
2018-12-30T04:13:24.193Z,988.61
2018-12-30T04:14:24.179Z,988.62
2018-12-30T04:15:24.168Z,988.58
2018-12-30T04:16:24.145Z,988.55
2018-12-30T04:17:24.130Z,988.54
2018-12-30T04:18:24.115Z,988.55
2018-12-30T04:19:24.099Z,988.58
2018-12-30T04:20:24.085Z,988.58
2018-12-30T04:21:24.068Z,988.61
2018-12-30T04:22:24.051Z,988.58
2018-12-30T04:23:24.035Z,988.63
2018-12-30T04:24:24.018Z,988.60
2018-12-30T04:25:24.003Z,988.58
2018-12-30T04:26:23.987Z,988.54
2018-12-30T04:27:23.972Z,988.53
2018-12-30T04:28:23.955Z,988.45
2018-12-30T04:29:23.938Z,988.45
2018-12-30T04:30:23.922Z,988.48
2018-12-30T04:31:23.909Z,988.56
2018-12-30T04:32:23.891Z,988.60
2018-12-30T04:33:23.876Z,988.68
2018-12-30T04:34:23.858Z,988.60
2018-12-30T04:35:23.844Z,988.55
2018-12-30T04:36:23.830Z,988.58
2018-12-30T04:37:23.814Z,988.60
2018-12-30T04:38:23.795Z,988.64
2018-12-30T04:39:23.781Z,988.66
2018-12-30T04:40:23.764Z,988.60
2018-12-30T04:41:23.749Z,988.64
2018-12-30T04:42:23.731Z,988.62
2018-12-30T04:43:23.722Z,988.65
2018-12-30T04:44:23.702Z,988.68
2018-12-30T04:45:23.685Z,988.62
2018-12-30T04:46:23.670Z,988.54
2018-12-30T04:47:23.653Z,988.50
2018-12-30T04:48:23.637Z,988.51
2018-12-30T04:49:23.625Z,988.53
2018-12-30T04:50:23.605Z,988.51
2018-12-30T04:51:23.592Z,988.53
2018-12-30T04:52:25.867Z,988.57
2018-12-30T04:53:23.561Z,988.62
2018-12-30T04:54:23.541Z,988.58
2018-12-30T04:55:23.529Z,988.63
2018-12-30T04:56:23.516Z,988.60
2018-12-30T04:57:23.497Z,988.59
2018-12-30T04:58:23.480Z,988.58
2018-12-30T04:59:23.461Z,988.62
2018-12-30T05:00:23.446Z,988.56
2018-12-30T05:01:23.515Z,988.61
2018-12-30T05:02:23.414Z,988.67
2018-12-30T05:03:23.403Z,988.64
2018-12-30T05:04:23.383Z,988.62
2018-12-30T05:05:23.376Z,988.64
2018-12-30T05:06:23.351Z,988.67
2018-12-30T05:07:23.335Z,988.68
2018-12-30T05:08:23.319Z,988.65
2018-12-30T05:09:23.304Z,988.60
2018-12-30T05:10:23.294Z,988.55
2018-12-30T05:11:23.271Z,988.50
2018-12-30T05:12:23.258Z,988.57
2018-12-30T05:13:23.240Z,988.55
2018-12-30T05:14:23.225Z,988.57
2018-12-30T05:15:23.208Z,988.57
2018-12-30T05:16:23.194Z,988.60
2018-12-30T05:17:23.177Z,988.62
2018-12-30T05:18:23.162Z,988.60
2018-12-30T05:19:23.146Z,988.65
2018-12-30T05:20:23.135Z,988.72
2018-12-30T05:21:23.114Z,988.75
2018-12-30T05:22:23.101Z,988.76
2018-12-30T05:23:23.084Z,988.75
2018-12-30T05:24:23.067Z,988.78
2018-12-30T05:25:23.051Z,988.77
2018-12-30T05:26:23.038Z,988.76
2018-12-30T05:27:23.018Z,988.78
2018-12-30T05:28:23.003Z,988.78
2018-12-30T05:29:22.987Z,988.79
2018-12-30T05:30:22.972Z,988.72
2018-12-30T05:31:22.955Z,988.76
2018-12-30T05:32:22.943Z,988.75
2018-12-30T05:33:22.925Z,988.73
2018-12-30T05:34:22.909Z,988.72
2018-12-30T05:35:22.893Z,988.75
2018-12-30T05:36:22.878Z,988.74
2018-12-30T05:37:22.862Z,988.74
2018-12-30T05:38:22.847Z,988.73
2018-12-30T05:39:22.829Z,988.80
2018-12-30T05:40:22.815Z,988.86
2018-12-30T05:41:22.799Z,988.84
2018-12-30T05:42:22.787Z,988.86
2018-12-30T05:43:22.766Z,988.82
2018-12-30T05:44:22.756Z,988.79
2018-12-30T05:45:22.741Z,988.80
2018-12-30T05:46:22.719Z,988.83
2018-12-30T05:47:22.704Z,988.85
2018-12-30T05:48:22.690Z,988.86
2018-12-30T05:49:22.672Z,988.89
2018-12-30T05:50:22.655Z,988.89
2018-12-30T05:51:22.641Z,988.87
2018-12-30T05:52:22.624Z,988.93
2018-12-30T05:53:22.609Z,988.94
2018-12-30T05:54:22.595Z,988.98
2018-12-30T05:55:22.577Z,988.95
2018-12-30T05:56:22.561Z,988.98
2018-12-30T05:57:22.545Z,989.00
2018-12-30T05:58:22.534Z,988.98
2018-12-30T05:59:22.513Z,989.06
2018-12-30T06:00:22.498Z,988.98
2018-12-30T06:01:22.480Z,988.98
2018-12-30T06:02:22.465Z,988.98
2018-12-30T06:03:22.448Z,988.96
2018-12-30T06:04:22.436Z,988.92
2018-12-30T06:05:22.420Z,988.98
2018-12-30T06:06:22.400Z,989.02
2018-12-30T06:07:22.388Z,989.03
2018-12-30T06:08:22.370Z,989.09
2018-12-30T06:09:22.357Z,989.10
2018-12-30T06:10:22.338Z,989.10
2018-12-30T06:11:22.324Z,989.06
2018-12-30T06:12:22.307Z,989.04
2018-12-30T06:13:22.292Z,988.99
2018-12-30T06:14:22.277Z,989.01
2018-12-30T06:15:22.262Z,989.02
2018-12-30T06:16:22.243Z,989.05
2018-12-30T06:17:22.228Z,989.01
2018-12-30T06:18:22.212Z,989.05
2018-12-30T06:19:22.196Z,989.06
2018-12-30T06:20:22.181Z,989.12
2018-12-30T06:21:22.166Z,989.11
2018-12-30T06:22:22.152Z,989.16
2018-12-30T06:23:22.135Z,989.15
2018-12-30T06:24:22.118Z,989.17
2018-12-30T06:25:22.103Z,989.20
2018-12-30T06:26:22.086Z,989.19
2018-12-30T06:27:22.073Z,989.25
2018-12-30T06:28:22.055Z,989.26
2018-12-30T06:29:22.040Z,989.29
2018-12-30T06:30:22.021Z,989.33
2018-12-30T06:31:22.007Z,989.30
2018-12-30T06:32:21.993Z,989.30
2018-12-30T06:33:21.977Z,989.30
2018-12-30T06:34:21.960Z,989.31
2018-12-30T06:35:21.946Z,989.31
2018-12-30T06:36:21.931Z,989.34
2018-12-30T06:37:21.913Z,989.34
2018-12-30T06:38:21.900Z,989.32
2018-12-30T06:39:21.881Z,989.31
2018-12-30T06:40:21.869Z,989.36
2018-12-30T06:41:21.851Z,989.39
2018-12-30T06:42:21.835Z,989.42
2018-12-30T06:43:21.818Z,989.46
2018-12-30T06:44:21.803Z,989.48
2018-12-30T06:45:21.791Z,989.46
2018-12-30T06:46:21.771Z,989.43
2018-12-30T06:47:21.755Z,989.47
2018-12-30T06:48:21.739Z,989.46
2018-12-30T06:49:21.729Z,989.48
2018-12-30T06:50:21.707Z,989.45
2018-12-30T06:51:21.692Z,989.49
2018-12-30T06:52:21.677Z,989.50
2018-12-30T06:53:21.665Z,989.55
2018-12-30T06:54:21.644Z,989.51
2018-12-30T06:55:21.629Z,989.51
2018-12-30T06:56:21.614Z,989.51
2018-12-30T06:57:21.599Z,989.53
2018-12-30T06:58:21.583Z,989.48
2018-12-30T06:59:21.565Z,989.46
2018-12-30T07:00:21.550Z,989.43
2018-12-30T07:01:21.534Z,989.53
2018-12-30T07:02:21.521Z,989.54
2018-12-30T07:03:21.504Z,989.60
2018-12-30T07:04:21.489Z,989.62
2018-12-30T07:05:21.474Z,989.57
2018-12-30T07:06:21.456Z,989.61
2018-12-30T07:07:21.440Z,989.63
2018-12-30T07:08:21.426Z,989.61
2018-12-30T07:09:21.410Z,989.60
2018-12-30T07:10:21.393Z,989.63
2018-12-30T07:11:21.376Z,989.67
2018-12-30T07:12:21.363Z,989.74
2018-12-30T07:13:21.347Z,989.75
2018-12-30T07:14:21.331Z,989.79
2018-12-30T07:15:21.316Z,989.83
2018-12-30T07:16:21.301Z,989.84
2018-12-30T07:17:21.283Z,989.90
2018-12-30T07:18:21.266Z,989.89
2018-12-30T07:19:21.252Z,989.87
2018-12-30T07:20:21.235Z,989.87
2018-12-30T07:21:21.221Z,989.93
2018-12-30T07:22:21.204Z,989.94
2018-12-30T07:23:21.188Z,990.00
2018-12-30T07:24:21.173Z,990.02
2018-12-30T07:25:21.159Z,989.98
2018-12-30T07:26:21.141Z,989.95
2018-12-30T07:27:21.126Z,990.01
2018-12-30T07:28:21.111Z,990.04
2018-12-30T07:29:21.094Z,990.02
2018-12-30T07:30:21.078Z,990.00
2018-12-30T07:31:21.064Z,990.03
2018-12-30T07:32:21.049Z,990.03
2018-12-30T07:33:23.048Z,989.98
2018-12-30T07:34:21.016Z,989.93
2018-12-30T07:35:20.999Z,989.92
2018-12-30T07:36:20.985Z,989.94
2018-12-30T07:37:20.971Z,989.99
2018-12-30T07:38:20.952Z,989.96
2018-12-30T07:39:20.994Z,990.03
2018-12-30T07:40:20.923Z,990.07
2018-12-30T07:41:20.908Z,990.13
2018-12-30T07:42:20.890Z,990.14
2018-12-30T07:43:20.875Z,990.17
2018-12-30T07:44:20.861Z,990.17
2018-12-30T07:45:20.848Z,990.17
2018-12-30T07:46:20.829Z,990.17
2018-12-30T07:47:20.811Z,990.20
2018-12-30T07:48:20.799Z,990.21
2018-12-30T07:49:20.781Z,990.28
2018-12-30T07:50:20.767Z,990.28
2018-12-30T07:51:20.751Z,990.30
2018-12-30T07:52:20.734Z,990.30
2018-12-30T07:53:20.720Z,990.33
2018-12-30T07:54:20.703Z,990.31
2018-12-30T07:55:20.690Z,990.33
2018-12-30T07:56:20.672Z,990.34
2018-12-30T07:57:20.656Z,990.36
2018-12-30T07:58:20.639Z,990.36
2018-12-30T07:59:20.626Z,990.35
2018-12-30T08:00:20.611Z,990.34
2018-12-30T08:01:20.595Z,990.31
2018-12-30T08:02:20.579Z,990.35
2018-12-30T08:03:20.562Z,990.27
2018-12-30T08:04:20.548Z,990.30
2018-12-30T08:05:20.532Z,990.30
2018-12-30T08:06:20.514Z,990.29
2018-12-30T08:07:20.501Z,990.29
2018-12-30T08:08:20.487Z,990.25
2018-12-30T08:09:20.468Z,990.28
2018-12-30T08:10:20.454Z,990.30
2018-12-30T08:11:20.438Z,990.33
2018-12-30T08:12:20.422Z,990.40
2018-12-30T08:13:20.408Z,990.38
2018-12-30T08:14:20.390Z,990.39
2018-12-30T08:15:20.376Z,990.44
2018-12-30T08:16:20.361Z,990.47
2018-12-30T08:17:20.344Z,990.45
2018-12-30T08:18:20.338Z,990.45
2018-12-30T08:19:20.312Z,990.40
2018-12-30T08:20:20.300Z,990.39
2018-12-30T08:21:20.284Z,990.44
2018-12-30T08:22:20.266Z,990.48
2018-12-30T08:23:21.694Z,990.48
2018-12-30T08:24:20.239Z,990.46
2018-12-30T08:25:20.221Z,990.42
2018-12-30T08:26:20.205Z,990.41
2018-12-30T08:27:20.191Z,990.43
2018-12-30T08:28:24.964Z,990.44
2018-12-30T08:29:20.161Z,990.50
2018-12-30T08:30:20.144Z,990.51
2018-12-30T08:31:20.128Z,990.51
2018-12-30T08:32:20.114Z,990.59
2018-12-30T08:33:20.100Z,990.59
2018-12-30T08:34:20.081Z,990.63
2018-12-30T08:35:20.066Z,990.66
2018-12-30T08:36:20.051Z,990.67
2018-12-30T08:37:20.036Z,990.63
2018-12-30T08:38:20.019Z,990.68
2018-12-30T08:39:20.004Z,990.69
2018-12-30T08:40:19.988Z,990.69
2018-12-30T08:41:19.973Z,990.66
2018-12-30T08:42:19.957Z,990.72
2018-12-30T08:43:19.941Z,990.72
2018-12-30T08:44:19.926Z,990.78
2018-12-30T08:45:19.914Z,990.83
2018-12-30T08:46:19.893Z,990.80
2018-12-30T08:47:19.882Z,990.78
2018-12-30T08:48:19.865Z,990.80
2018-12-30T08:49:19.850Z,990.81
2018-12-30T08:50:19.834Z,990.78
2018-12-30T08:51:19.817Z,990.79
2018-12-30T08:52:19.800Z,990.79
2018-12-30T08:53:19.787Z,990.79
2018-12-30T08:54:19.770Z,990.87
2018-12-30T08:55:19.753Z,990.88
2018-12-30T08:56:19.817Z,990.88
2018-12-30T08:57:19.723Z,990.92
2018-12-30T08:58:19.706Z,990.86
2018-12-30T08:59:19.694Z,990.88
2018-12-30T09:00:19.681Z,990.92
2018-12-30T09:01:19.663Z,990.84
2018-12-30T09:02:19.645Z,990.86
2018-12-30T09:03:19.629Z,990.88
2018-12-30T09:04:19.619Z,990.86
2018-12-30T09:05:19.598Z,990.88
2018-12-30T09:06:19.583Z,990.90
2018-12-30T09:07:19.567Z,990.89
2018-12-30T09:08:19.552Z,990.91
2018-12-30T09:09:19.538Z,990.93
2018-12-30T09:10:19.522Z,991.04
2018-12-30T09:11:19.508Z,991.07
2018-12-30T09:12:19.492Z,991.05
2018-12-30T09:13:19.478Z,991.06
2018-12-30T09:14:19.460Z,991.12
2018-12-30T09:15:19.445Z,991.20
2018-12-30T09:16:19.431Z,991.27
2018-12-30T09:17:19.416Z,991.27
2018-12-30T09:18:19.400Z,991.28
2018-12-30T09:19:19.386Z,991.22
2018-12-30T09:20:19.370Z,991.15
2018-12-30T09:21:19.359Z,991.11
2018-12-30T09:22:19.339Z,991.08
2018-12-30T09:23:19.418Z,991.05
2018-12-30T09:24:19.308Z,991.06
2018-12-30T09:25:19.292Z,991.09
2018-12-30T09:26:19.275Z,991.06
2018-12-30T09:27:19.263Z,991.05
2018-12-30T09:28:19.252Z,991.05
2018-12-30T09:29:19.231Z,991.09
2018-12-30T09:30:19.215Z,991.09
2018-12-30T09:31:19.202Z,991.09
2018-12-30T09:32:19.185Z,991.02
2018-12-30T09:33:19.170Z,991.00
2018-12-30T09:34:19.157Z,991.05
2018-12-30T09:35:19.141Z,991.05
2018-12-30T09:36:19.127Z,991.03
2018-12-30T09:37:19.112Z,990.97
2018-12-30T09:38:19.096Z,990.92
2018-12-30T09:39:19.079Z,990.89
2018-12-30T09:40:19.065Z,990.79
2018-12-30T09:41:19.049Z,990.71
2018-12-30T09:42:19.035Z,990.71
2018-12-30T09:43:19.019Z,990.80
2018-12-30T09:44:19.005Z,990.85
2018-12-30T09:45:18.989Z,990.80
2018-12-30T09:46:18.972Z,990.76
2018-12-30T09:47:18.959Z,990.68
2018-12-30T09:48:18.944Z,990.61
2018-12-30T09:49:18.929Z,990.63
2018-12-30T09:50:18.911Z,990.61
2018-12-30T09:51:18.898Z,990.65
2018-12-30T09:52:18.884Z,990.59
2018-12-30T09:53:18.870Z,990.55
2018-12-30T09:54:18.852Z,990.49
2018-12-30T09:55:18.839Z,990.49
2018-12-30T09:56:18.824Z,990.52
2018-12-30T09:57:18.807Z,990.54
2018-12-30T09:58:18.793Z,990.52
2018-12-30T09:59:18.777Z,990.52
2018-12-30T10:00:18.761Z,990.56
2018-12-30T10:01:18.747Z,990.60
2018-12-30T10:02:18.733Z,990.60
2018-12-30T10:03:18.718Z,990.67
2018-12-30T10:04:18.706Z,990.68
2018-12-30T10:05:18.691Z,990.67
2018-12-30T10:06:18.673Z,990.68
2018-12-30T10:07:18.659Z,990.72
2018-12-30T10:08:18.644Z,990.72
2018-12-30T10:09:18.630Z,990.68
2018-12-30T10:10:18.611Z,990.69
2018-12-30T10:11:18.602Z,990.64
2018-12-30T10:12:18.583Z,990.57
2018-12-30T10:13:18.568Z,990.57
2018-12-30T10:14:18.552Z,990.56
2018-12-30T10:15:18.537Z,990.56
2018-12-30T10:16:18.522Z,990.65
2018-12-30T10:17:18.504Z,990.65
2018-12-30T10:18:18.490Z,990.67
2018-12-30T10:19:18.475Z,990.71
2018-12-30T10:20:18.467Z,990.67
2018-12-30T10:21:18.448Z,990.72
2018-12-30T10:22:18.431Z,990.66
2018-12-30T10:23:18.415Z,990.62
2018-12-30T10:24:18.402Z,990.69
2018-12-30T10:25:18.389Z,990.70
2018-12-30T10:26:18.374Z,990.78
2018-12-30T10:27:18.355Z,990.77
2018-12-30T10:28:18.341Z,990.80
2018-12-30T10:29:18.327Z,990.80
2018-12-30T10:30:18.311Z,990.78
2018-12-30T10:31:18.296Z,990.76
2018-12-30T10:32:18.281Z,990.72
2018-12-30T10:33:18.264Z,990.71
2018-12-30T10:34:18.249Z,990.66
2018-12-30T10:35:18.235Z,990.66
2018-12-30T10:36:18.219Z,990.66
2018-12-30T10:37:18.206Z,990.66
2018-12-30T10:38:18.191Z,990.70
2018-12-30T10:39:18.173Z,990.68
2018-12-30T10:40:18.159Z,990.71
2018-12-30T10:41:18.146Z,990.79
2018-12-30T10:42:18.129Z,990.77
2018-12-30T10:43:18.117Z,990.76
2018-12-30T10:44:18.100Z,990.76
2018-12-30T10:45:18.087Z,990.77
2018-12-30T10:46:18.071Z,990.71
2018-12-30T10:47:18.055Z,990.72
2018-12-30T10:48:18.040Z,990.73
2018-12-30T10:49:18.030Z,990.69
2018-12-30T10:50:18.012Z,990.74
2018-12-30T10:51:17.999Z,990.66
2018-12-30T10:52:17.981Z,990.62
2018-12-30T10:53:17.971Z,990.57
2018-12-30T10:54:17.952Z,990.56
2018-12-30T10:55:17.936Z,990.50
2018-12-30T10:56:17.921Z,990.55
2018-12-30T10:57:17.909Z,990.59
2018-12-30T10:58:17.894Z,990.62
2018-12-30T10:59:17.876Z,990.63
2018-12-30T11:00:17.865Z,990.66
2018-12-30T11:01:17.849Z,990.70
2018-12-30T11:02:17.832Z,990.73
2018-12-30T11:03:17.820Z,990.78
2018-12-30T11:04:17.825Z,990.75
2018-12-30T11:05:17.789Z,990.75
2018-12-30T11:06:17.775Z,990.76
2018-12-30T11:07:17.761Z,990.68
2018-12-30T11:08:17.748Z,990.64
2018-12-30T11:09:17.774Z,990.67
2018-12-30T11:10:17.715Z,990.68
2018-12-30T11:11:17.700Z,990.71
2018-12-30T11:12:17.691Z,990.67
2018-12-30T11:13:17.670Z,990.71
2018-12-30T11:14:17.656Z,990.70
2018-12-30T11:15:17.644Z,990.68
2018-12-30T11:16:17.629Z,990.64
2018-12-30T11:17:17.611Z,990.62
2018-12-30T11:18:17.599Z,990.61
2018-12-30T11:19:17.583Z,990.58
2018-12-30T11:20:17.567Z,990.57
2018-12-30T11:21:17.556Z,990.56
2018-12-30T11:22:17.543Z,990.56
2018-12-30T11:23:17.524Z,990.57
2018-12-30T11:24:17.512Z,990.57
2018-12-30T11:25:17.497Z,990.62
2018-12-30T11:26:17.478Z,990.59
2018-12-30T11:27:17.511Z,990.61
2018-12-30T11:28:17.453Z,990.60
2018-12-30T11:29:17.438Z,990.59
2018-12-30T11:30:17.424Z,990.61
2018-12-30T11:31:17.406Z,990.60
2018-12-30T11:32:17.395Z,990.58
2018-12-30T11:33:17.381Z,990.53
2018-12-30T11:34:17.363Z,990.48
2018-12-30T11:35:17.442Z,990.37
2018-12-30T11:36:17.663Z,990.38
2018-12-30T11:37:17.321Z,990.34
2018-12-30T11:38:17.306Z,990.38
2018-12-30T11:39:17.293Z,990.36
2018-12-30T11:40:17.277Z,990.28
2018-12-30T11:41:17.261Z,990.27
2018-12-30T11:42:17.249Z,990.23
2018-12-30T11:43:17.239Z,990.22
2018-12-30T11:44:17.218Z,990.22
2018-12-30T11:45:17.205Z,990.19
2018-12-30T11:46:17.188Z,990.17
2018-12-30T11:47:17.178Z,990.18
2018-12-30T11:48:17.166Z,990.09
2018-12-30T11:49:17.148Z,990.15
2018-12-30T11:50:17.133Z,990.05
2018-12-30T11:51:17.118Z,990.14
2018-12-30T11:52:17.105Z,990.14
2018-12-30T11:53:17.090Z,990.12
2018-12-30T11:54:17.075Z,990.18
2018-12-30T11:55:17.061Z,990.23
2018-12-30T11:56:17.047Z,990.24
2018-12-30T11:57:17.035Z,990.26
2018-12-30T11:58:17.020Z,990.32
2018-12-30T11:59:17.005Z,990.34
2018-12-30T12:00:16.990Z,990.24
2018-12-30T12:01:16.976Z,990.22
2018-12-30T12:02:23.809Z,990.17
2018-12-30T12:03:16.949Z,990.08
2018-12-30T12:04:16.936Z,989.96
2018-12-30T12:05:16.920Z,989.95
2018-12-30T12:06:16.908Z,989.89
2018-12-30T12:07:16.890Z,989.87
2018-12-30T12:08:16.876Z,989.89
2018-12-30T12:09:16.870Z,989.86
2018-12-30T12:10:16.851Z,989.80
2018-12-30T12:11:16.835Z,989.80
2018-12-30T12:12:16.819Z,989.77
2018-12-30T12:13:16.804Z,989.73
2018-12-30T12:14:16.791Z,989.69
2018-12-30T12:15:16.777Z,989.75
2018-12-30T12:16:16.763Z,989.73
2018-12-30T12:17:16.749Z,989.77
2018-12-30T12:18:16.733Z,989.77
2018-12-30T12:19:16.720Z,989.80
2018-12-30T12:20:16.708Z,989.77
2018-12-30T12:21:16.692Z,989.76
2018-12-30T12:22:16.678Z,989.72
2018-12-30T12:23:16.664Z,989.66
2018-12-30T12:24:24.074Z,989.62
2018-12-30T12:25:16.637Z,989.57
2018-12-30T12:26:16.620Z,989.51
2018-12-30T12:27:16.608Z,989.47
2018-12-30T12:28:16.594Z,989.44